createdAt,value
2019-02-21T00:01:22.412Z,18.73
2019-02-21T00:03:51.840Z,18.90
2019-02-21T00:06:20.964Z,18.65
2019-02-21T00:08:50.081Z,19.65
2019-02-21T00:11:19.202Z,18.30
2019-02-21T00:13:48.316Z,18.25
2019-02-21T00:16:17.432Z,21.25
2019-02-21T00:18:46.550Z,18.55
2019-02-21T00:21:15.660Z,21.15
2019-02-21T00:23:44.786Z,20.35
2019-02-21T00:26:13.899Z,20.17
2019-02-21T00:28:43.027Z,20.27
2019-02-21T00:31:12.155Z,19.52
2019-02-21T00:33:41.274Z,20.55
2019-02-21T00:36:10.639Z,19.48
2019-02-21T00:38:39.759Z,19.42
2019-02-21T00:41:08.883Z,19.02
2019-02-21T00:43:37.999Z,18.85
2019-02-21T00:46:07.127Z,20.92
2019-02-21T00:48:36.241Z,20.75
2019-02-21T00:51:05.414Z,20.10
2019-02-21T00:53:34.525Z,20.55
2019-02-21T00:56:03.661Z,20.00
2019-02-21T00:58:33.013Z,21.50
2019-02-21T01:01:02.411Z,19.70
2019-02-21T01:03:31.515Z,20.62
2019-02-21T01:06:00.887Z,19.87
2019-02-21T01:08:30.299Z,19.87
2019-02-21T01:10:59.416Z,19.73
2019-02-21T01:13:29.007Z,20.45
2019-02-21T01:15:58.120Z,20.40
2019-02-21T01:18:27.243Z,21.68
2019-02-21T01:20:56.366Z,20.10
2019-02-21T01:23:25.493Z,20.85
2019-02-21T01:25:54.613Z,20.35
2019-02-21T01:28:23.732Z,22.20
2019-02-21T01:30:56.969Z,21.95
2019-02-21T01:33:23.677Z,22.15
2019-02-21T01:35:52.780Z,21.85
2019-02-21T01:38:21.903Z,21.80
2019-02-21T01:40:51.092Z,21.55
2019-02-21T01:43:20.212Z,20.30
2019-02-21T01:45:49.635Z,21.75
2019-02-21T01:48:18.770Z,21.23
2019-02-21T01:50:47.851Z,21.12
2019-02-21T01:53:16.986Z,22.55
2019-02-21T01:55:46.089Z,19.82
2019-02-21T01:58:16.206Z,22.13
2019-02-21T02:00:45.302Z,21.02
2019-02-21T02:03:14.472Z,21.48
2019-02-21T02:05:43.608Z,21.20
2019-02-21T02:08:12.762Z,20.77
2019-02-21T02:10:41.840Z,21.30
2019-02-21T02:13:23.800Z,21.30
2019-02-21T02:15:41.777Z,20.00
2019-02-21T02:18:10.893Z,20.55
2019-02-21T02:20:40.344Z,19.52
2019-02-21T02:23:09.473Z,21.23
2019-02-21T02:25:38.589Z,19.77
2019-02-21T02:28:07.713Z,20.77
2019-02-21T02:30:36.836Z,21.23
2019-02-21T02:33:06.051Z,20.12
2019-02-21T02:35:35.178Z,20.40
2019-02-21T02:38:04.303Z,21.40
2019-02-21T02:40:33.478Z,20.02
2019-02-21T02:43:02.551Z,18.15
2019-02-21T02:45:31.693Z,20.62
2019-02-21T02:48:01.029Z,19.77
2019-02-21T02:50:31.117Z,20.10
2019-02-21T02:53:00.248Z,19.65
2019-02-21T02:55:29.368Z,18.60
2019-02-21T02:57:58.741Z,18.62
2019-02-21T03:00:27.864Z,18.65
2019-02-21T03:02:57.023Z,18.85
2019-02-21T03:05:26.141Z,18.25
2019-02-21T03:07:55.264Z,19.60
2019-02-21T03:10:24.380Z,18.90
2019-02-21T03:12:53.501Z,19.37
2019-02-21T03:15:22.622Z,18.62
2019-02-21T03:17:51.761Z,20.15
2019-02-21T03:20:20.869Z,19.00
2019-02-21T03:22:49.987Z,18.35
2019-02-21T03:25:19.108Z,18.85
2019-02-21T03:27:48.228Z,18.48
2019-02-21T03:30:17.369Z,18.55
2019-02-21T03:32:46.487Z,17.75
2019-02-21T03:35:15.608Z,18.30
2019-02-21T03:37:44.730Z,18.30
2019-02-21T03:40:13.851Z,18.15
2019-02-21T03:42:42.970Z,17.80
2019-02-21T03:45:13.454Z,18.67
2019-02-21T03:47:44.603Z,17.70
2019-02-21T03:50:13.383Z,19.92
2019-02-21T03:52:42.499Z,18.70
2019-02-21T03:55:11.622Z,18.52
2019-02-21T03:57:40.744Z,19.37
2019-02-21T04:00:11.418Z,19.23
2019-02-21T04:02:40.776Z,18.60
2019-02-21T04:05:09.897Z,18.07
2019-02-21T04:07:39.016Z,18.25
2019-02-21T04:10:09.072Z,18.55
2019-02-21T04:12:38.200Z,18.82
2019-02-21T04:15:09.623Z,18.98
2019-02-21T04:17:38.741Z,19.32
2019-02-21T04:20:08.800Z,19.57
2019-02-21T04:22:37.918Z,20.05
2019-02-21T04:25:07.044Z,19.45
2019-02-21T04:27:36.163Z,20.52
2019-02-21T04:30:05.920Z,20.62
2019-02-21T04:32:35.051Z,20.85
2019-02-21T04:35:04.433Z,19.20
2019-02-21T04:37:33.564Z,21.77
2019-02-21T04:40:02.919Z,20.48
2019-02-21T04:42:32.041Z,20.02
2019-02-21T04:45:01.161Z,19.55
2019-02-21T04:47:30.354Z,21.60
2019-02-21T04:49:59.470Z,20.85
2019-02-21T04:52:28.604Z,20.48
2019-02-21T04:54:57.762Z,20.97
2019-02-21T04:57:26.889Z,21.75
2019-02-21T04:59:56.012Z,21.33
2019-02-21T05:02:29.269Z,21.93
2019-02-21T05:04:55.947Z,21.42
2019-02-21T05:07:25.078Z,21.85
2019-02-21T05:09:58.058Z,20.95
2019-02-21T05:12:25.024Z,21.55
2019-02-21T05:14:54.151Z,20.62
2019-02-21T05:17:23.269Z,21.42
2019-02-21T05:19:52.386Z,21.48
2019-02-21T05:22:21.798Z,21.70
2019-02-21T05:24:50.914Z,20.68
2019-02-21T05:27:21.671Z,21.85
2019-02-21T05:29:50.786Z,22.48
2019-02-21T05:32:40.219Z,21.70
2019-02-21T05:35:18.776Z,22.22
2019-02-21T05:37:52.193Z,22.35
2019-02-21T05:40:37.914Z,21.60
2019-02-21T05:43:15.097Z,21.65
2019-02-21T05:45:48.746Z,20.80
2019-02-21T05:48:25.472Z,21.17
2019-02-21T05:50:59.298Z,21.87
2019-02-21T05:56:05.719Z,22.95
2019-02-21T05:58:42.348Z,21.40
2019-02-21T06:01:15.751Z,22.32
2019-02-21T06:03:50.567Z,23.55
2019-02-21T06:08:51.323Z,23.32
2019-02-21T06:14:24.014Z,21.85
2019-02-21T06:17:03.937Z,22.35
2019-02-21T06:19:34.702Z,23.87
2019-02-21T06:22:11.020Z,24.63
2019-02-21T06:24:40.974Z,26.02
2019-02-21T06:27:12.370Z,25.15
2019-02-21T06:29:43.397Z,25.00
2019-02-21T06:32:14.502Z,25.20
2019-02-21T06:34:43.279Z,27.02
2019-02-21T06:37:12.790Z,25.02
2019-02-21T06:39:42.006Z,26.10
2019-02-21T06:42:11.126Z,25.92
2019-02-21T06:44:40.391Z,26.50
2019-02-21T06:47:09.561Z,27.00
2019-02-21T06:49:38.684Z,25.57
2019-02-21T06:52:07.798Z,27.20
2019-02-21T06:54:36.917Z,27.77
2019-02-21T06:57:06.052Z,27.00
2019-02-21T06:59:43.357Z,28.42
2019-02-21T07:02:06.036Z,28.07
2019-02-21T07:04:35.170Z,27.82
2019-02-21T07:07:04.276Z,26.73
2019-02-21T07:09:33.394Z,29.27
2019-02-21T07:12:02.832Z,29.70
2019-02-21T07:14:34.415Z,28.25
2019-02-21T07:17:03.063Z,30.75
2019-02-21T07:19:32.188Z,31.02
2019-02-21T07:22:01.310Z,30.12
2019-02-21T07:24:30.986Z,30.32
2019-02-21T07:27:00.382Z,30.27
2019-02-21T07:29:30.510Z,32.33
2019-02-21T07:31:59.927Z,32.35
2019-02-21T07:34:30.486Z,30.70
2019-02-21T07:36:59.727Z,31.02
2019-02-21T07:39:36.187Z,31.45
2019-02-21T07:41:59.665Z,31.15
2019-02-21T07:44:28.783Z,33.18
2019-02-21T07:46:57.903Z,32.15
2019-02-21T07:49:27.034Z,30.97
2019-02-21T07:51:56.466Z,32.00
2019-02-21T07:54:25.596Z,32.48
2019-02-21T07:56:54.720Z,33.15
2019-02-21T07:59:23.838Z,31.62
2019-02-21T08:01:52.968Z,32.85
2019-02-21T08:04:22.091Z,32.67
2019-02-21T08:06:55.426Z,33.48
2019-02-21T08:09:23.134Z,30.82
2019-02-21T08:11:52.245Z,32.30
2019-02-21T08:14:21.362Z,34.03
2019-02-21T08:16:50.490Z,33.20
2019-02-21T08:19:19.607Z,35.30
2019-02-21T08:21:48.905Z,33.63
2019-02-21T08:24:18.034Z,32.20
2019-02-21T08:26:47.295Z,33.02
2019-02-21T08:29:16.398Z,33.40
2019-02-21T08:31:45.538Z,32.00
2019-02-21T08:34:16.294Z,31.60
2019-02-21T08:36:45.414Z,34.90
2019-02-21T08:39:14.578Z,33.53
2019-02-21T08:41:43.703Z,33.02
2019-02-21T08:44:12.826Z,34.08
2019-02-21T08:46:41.955Z,33.73
2019-02-21T08:49:11.108Z,33.95
2019-02-21T08:51:40.299Z,34.25
2019-02-21T08:54:11.385Z,34.23
2019-02-21T08:56:40.240Z,35.13
2019-02-21T08:59:09.606Z,35.50
2019-02-21T09:01:38.724Z,33.92
2019-02-21T09:04:13.591Z,33.90
2019-02-21T09:06:38.675Z,33.85
2019-02-21T09:09:07.849Z,33.83
2019-02-21T09:11:37.128Z,32.88
2019-02-21T09:14:06.257Z,35.17
2019-02-21T09:16:35.376Z,35.45
2019-02-21T09:19:04.507Z,33.95
2019-02-21T09:21:35.001Z,35.38
2019-02-21T09:24:04.363Z,35.50
2019-02-21T09:26:34.780Z,34.20
2019-02-21T09:29:03.859Z,34.08
2019-02-21T09:31:33.216Z,35.85
2019-02-21T09:34:02.347Z,35.38
2019-02-21T09:36:31.701Z,34.55
2019-02-21T09:39:00.822Z,32.42
2019-02-21T09:41:32.164Z,34.43
2019-02-21T09:44:01.478Z,33.90
2019-02-21T09:46:30.912Z,34.25
2019-02-21T09:49:02.845Z,33.08
2019-02-21T09:51:31.078Z,33.15
2019-02-21T09:54:00.439Z,33.60
2019-02-21T09:56:30.869Z,35.20
2019-02-21T09:59:00.051Z,33.65
2019-02-21T10:01:29.405Z,34.48
2019-02-21T10:03:58.526Z,33.10
2019-02-21T10:06:27.653Z,32.45
2019-02-21T10:08:56.772Z,32.67
2019-02-21T10:11:25.891Z,33.85
2019-02-21T10:13:55.022Z,32.42
2019-02-21T10:16:24.137Z,34.40
2019-02-21T10:18:53.262Z,34.80
2019-02-21T10:21:22.382Z,34.45
2019-02-21T10:23:51.496Z,34.08
2019-02-21T10:26:20.633Z,33.18
2019-02-21T10:28:50.001Z,33.20
2019-02-21T10:31:19.134Z,32.70
2019-02-21T10:33:48.251Z,33.15
2019-02-21T10:36:17.378Z,33.20
2019-02-21T10:38:46.500Z,33.15
2019-02-21T10:41:15.626Z,33.02
2019-02-21T10:43:44.744Z,32.10
2019-02-21T10:46:14.101Z,33.33
2019-02-21T10:48:43.223Z,34.30
2019-02-21T10:51:12.354Z,32.98
2019-02-21T10:53:41.479Z,32.42
2019-02-21T10:56:10.626Z,31.80
2019-02-21T10:58:40.714Z,29.50
2019-02-21T11:01:09.848Z,28.40
2019-02-21T11:03:38.971Z,29.00
2019-02-21T11:06:08.103Z,25.65
2019-02-21T11:08:37.460Z,26.50
2019-02-21T11:11:06.598Z,25.02
2019-02-21T11:13:35.739Z,24.57
2019-02-21T11:16:04.848Z,23.55
2019-02-21T11:18:33.972Z,22.73
2019-02-21T11:21:03.106Z,20.08
2019-02-21T11:23:32.229Z,20.75
2019-02-21T11:26:01.360Z,21.85
2019-02-21T11:28:30.493Z,21.07
2019-02-21T11:30:59.685Z,20.48
2019-02-21T11:33:28.817Z,19.00
2019-02-21T11:35:57.917Z,18.37
2019-02-21T11:38:27.065Z,18.35
2019-02-21T11:40:56.172Z,16.52
2019-02-21T11:43:25.322Z,18.30
2019-02-21T11:45:57.376Z,17.27
2019-02-21T11:48:25.275Z,17.57
2019-02-21T11:50:54.633Z,19.15
2019-02-21T11:53:23.761Z,16.90
2019-02-21T11:55:52.882Z,18.07
2019-02-21T11:58:22.013Z,18.92
2019-02-21T12:00:51.135Z,16.95
2019-02-21T12:03:21.316Z,16.87
2019-02-21T12:05:50.568Z,15.63
2019-02-21T12:08:19.695Z,16.35
2019-02-21T12:10:50.905Z,15.48
2019-02-21T12:13:19.647Z,15.13
2019-02-21T12:15:48.774Z,14.83
2019-02-21T12:18:18.149Z,14.25
2019-02-21T12:20:47.253Z,15.00
2019-02-21T12:23:17.798Z,13.55
2019-02-21T12:25:46.979Z,12.50
2019-02-21T12:28:16.103Z,12.18
2019-02-21T12:30:45.223Z,12.20
2019-02-21T12:33:14.384Z,12.35
2019-02-21T12:35:43.711Z,13.60
2019-02-21T12:38:12.856Z,13.65
2019-02-21T12:40:41.962Z,14.85
2019-02-21T12:43:11.114Z,16.37
2019-02-21T12:45:40.227Z,16.20
2019-02-21T12:48:09.358Z,16.23
2019-02-21T12:50:44.393Z,15.10
2019-02-21T12:53:09.314Z,15.15
2019-02-21T12:55:38.435Z,14.55
2019-02-21T12:58:07.622Z,13.50
2019-02-21T13:00:36.746Z,14.87
2019-02-21T13:03:05.823Z,15.65
2019-02-21T13:05:40.915Z,16.40
2019-02-21T13:08:05.789Z,16.62
2019-02-21T13:10:35.135Z,15.35
2019-02-21T13:13:04.220Z,17.23
2019-02-21T13:15:33.583Z,15.15
2019-02-21T13:18:02.712Z,17.35
2019-02-21T13:20:31.839Z,15.18
2019-02-21T13:23:01.198Z,16.97
2019-02-21T13:25:30.609Z,17.67
2019-02-21T13:27:59.933Z,17.50
2019-02-21T13:30:29.062Z,17.50
2019-02-21T13:32:58.184Z,18.17
2019-02-21T13:35:29.275Z,17.25
2019-02-21T13:37:58.131Z,18.40
2019-02-21T13:40:27.270Z,16.97
2019-02-21T13:42:56.391Z,18.95
2019-02-21T13:45:25.750Z,18.45
2019-02-21T13:47:54.871Z,19.85
2019-02-21T13:50:24.060Z,19.48
2019-02-21T13:52:53.141Z,19.62
2019-02-21T13:55:22.276Z,20.30
2019-02-21T13:57:51.403Z,19.77
2019-02-21T14:00:21.903Z,17.55
2019-02-21T14:02:51.026Z,19.92
2019-02-21T14:05:20.153Z,19.65
2019-02-21T14:07:50.103Z,19.87
2019-02-21T14:10:19.227Z,17.57
2019-02-21T14:12:48.596Z,17.92
2019-02-21T14:15:20.723Z,18.35
2019-02-21T14:17:49.898Z,18.17
2019-02-21T14:20:19.003Z,17.62
2019-02-21T14:22:48.123Z,24.50
2019-02-21T14:25:17.263Z,18.95
2019-02-21T14:27:46.618Z,20.57
2019-02-21T14:30:19.848Z,19.73
2019-02-21T14:32:48.970Z,18.55
2019-02-21T14:35:18.116Z,19.30
2019-02-21T14:37:47.234Z,18.85
2019-02-21T14:40:17.099Z,18.45
2019-02-21T14:42:46.226Z,19.02
2019-02-21T14:45:23.640Z,18.60
2019-02-21T14:47:52.761Z,19.15
2019-02-21T14:50:21.883Z,19.30
2019-02-21T14:52:51.011Z,20.15
2019-02-21T14:55:20.374Z,19.05
2019-02-21T14:57:49.516Z,20.48
2019-02-21T15:00:26.728Z,18.27
2019-02-21T15:02:57.754Z,18.25
2019-02-21T15:05:27.837Z,20.23
2019-02-21T15:07:56.967Z,18.27
2019-02-21T15:10:26.091Z,19.40
2019-02-21T15:12:55.460Z,20.02
2019-02-21T15:15:26.494Z,19.32
2019-02-21T15:18:06.577Z,18.80
2019-02-21T15:20:36.189Z,20.25
2019-02-21T15:22:57.272Z,19.85
2019-02-21T15:25:26.402Z,19.67
2019-02-21T15:27:55.535Z,18.35
2019-02-21T15:30:27.328Z,19.37
2019-02-21T15:32:56.460Z,19.95
2019-02-21T15:35:25.591Z,19.40
2019-02-21T15:37:54.726Z,19.05
2019-02-21T15:40:24.087Z,20.97
2019-02-21T15:42:53.238Z,19.42
2019-02-21T15:45:29.477Z,19.90
2019-02-21T15:47:58.607Z,19.60
2019-02-21T15:50:27.735Z,19.92
2019-02-21T15:52:57.194Z,19.92
2019-02-21T15:55:26.331Z,19.95
2019-02-21T15:58:03.820Z,18.52
2019-02-21T16:00:26.284Z,18.02
2019-02-21T16:02:55.415Z,17.67
2019-02-21T16:05:24.574Z,18.27
2019-02-21T16:07:53.689Z,18.57
2019-02-21T16:10:25.227Z,19.55
2019-02-21T16:12:54.640Z,16.12
2019-02-21T16:15:24.032Z,18.15
2019-02-21T16:17:53.147Z,18.10
2019-02-21T16:20:22.280Z,17.27
2019-02-21T16:22:51.436Z,16.65
2019-02-21T16:25:31.643Z,17.15
2019-02-21T16:28:00.783Z,18.90
2019-02-21T16:30:29.898Z,18.05
2019-02-21T16:32:59.059Z,17.37
2019-02-21T16:35:28.184Z,17.23
2019-02-21T16:37:57.317Z,17.57
2019-02-21T16:40:26.447Z,17.60
2019-02-21T16:42:56.549Z,17.20
2019-02-21T16:45:25.674Z,17.98
2019-02-21T16:47:54.810Z,18.85
2019-02-21T16:50:29.717Z,18.35
2019-02-21T16:52:54.762Z,18.73
2019-02-21T16:55:24.626Z,17.87
2019-02-21T16:57:53.988Z,21.12
2019-02-21T17:00:23.852Z,20.82
2019-02-21T17:02:52.987Z,18.48
2019-02-21T17:05:22.108Z,26.75
2019-02-21T17:07:51.235Z,22.30
2019-02-21T17:10:20.354Z,23.52
2019-02-21T17:12:49.525Z,20.35
2019-02-21T17:15:18.967Z,21.02
2019-02-21T17:17:48.082Z,20.88
2019-02-21T17:20:21.654Z,21.87
2019-02-21T17:22:50.773Z,21.35
2019-02-21T17:25:19.902Z,21.37
2019-02-21T17:27:50.819Z,22.75
2019-02-21T17:30:20.255Z,21.20
2019-02-21T17:32:49.375Z,21.20
2019-02-21T17:35:18.497Z,22.30
2019-02-21T17:37:47.718Z,22.27
2019-02-21T17:40:22.496Z,22.62
2019-02-21T17:42:51.623Z,23.22
2019-02-21T17:45:20.758Z,24.20
2019-02-21T17:47:49.885Z,23.87
2019-02-21T17:50:19.983Z,24.67
2019-02-21T17:52:49.383Z,25.80
2019-02-21T17:55:18.588Z,24.82
2019-02-21T17:57:47.715Z,24.18
2019-02-21T18:00:23.202Z,22.98
2019-02-21T18:02:52.343Z,25.17
2019-02-21T18:05:21.466Z,25.68
2019-02-21T18:07:50.841Z,25.00
2019-02-21T18:10:19.963Z,23.47
2019-02-21T18:12:49.085Z,24.80
2019-02-21T18:15:18.461Z,24.45
2019-02-21T18:17:47.586Z,25.43
2019-02-21T18:20:16.795Z,23.25
2019-02-21T18:22:45.970Z,24.52
2019-02-21T18:25:18.453Z,26.00
2019-02-21T18:27:47.648Z,26.30
2019-02-21T18:30:17.495Z,26.05
2019-02-21T18:32:46.854Z,25.30
2019-02-21T18:35:15.985Z,24.70
2019-02-21T18:37:47.689Z,25.52
2019-02-21T18:40:23.660Z,25.30
2019-02-21T18:42:53.012Z,24.43
2019-02-21T18:45:22.143Z,25.65
2019-02-21T18:47:52.232Z,24.95
2019-02-21T18:50:21.595Z,23.18
2019-02-21T18:52:50.717Z,24.35
2019-02-21T18:55:19.860Z,23.12
2019-02-21T18:57:48.980Z,21.95
2019-02-21T19:00:22.446Z,24.07
2019-02-21T19:02:51.806Z,24.57
2019-02-21T19:05:21.484Z,23.35
2019-02-21T19:07:59.629Z,24.27
2019-02-21T19:10:22.487Z,25.17
2019-02-21T19:12:51.610Z,23.15
2019-02-21T19:15:21.667Z,23.32
2019-02-21T19:17:50.803Z,22.62
2019-02-21T19:20:21.184Z,24.50
2019-02-21T19:22:50.294Z,25.15
2019-02-21T19:25:19.426Z,24.67
2019-02-21T19:27:48.546Z,31.95
2019-02-21T19:30:25.664Z,31.57
2019-02-21T19:32:54.558Z,36.73
2019-02-21T19:35:23.722Z,33.65
2019-02-21T19:37:52.844Z,29.50
2019-02-21T19:40:21.975Z,31.42
2019-02-21T19:42:52.309Z,27.35
2019-02-21T19:45:21.677Z,26.33
2019-02-21T19:47:51.051Z,25.60
2019-02-21T19:50:20.163Z,24.20
2019-02-21T19:52:49.297Z,24.45
2019-02-21T19:55:18.650Z,23.32
2019-02-21T19:57:47.774Z,23.60
2019-02-21T20:00:24.091Z,24.02
2019-02-21T20:02:53.529Z,23.70
2019-02-21T20:05:22.724Z,25.17
2019-02-21T20:07:51.858Z,24.35
2019-02-21T20:10:20.985Z,24.45
2019-02-21T20:12:50.115Z,26.52
2019-02-21T20:15:19.257Z,23.50
2019-02-21T20:17:48.382Z,25.88
2019-02-21T20:20:19.759Z,26.20
2019-02-21T20:22:48.906Z,25.45
2019-02-21T20:25:18.014Z,22.85
2019-02-21T20:27:47.210Z,26.05
2019-02-21T20:30:17.590Z,26.10
2019-02-21T20:32:46.772Z,27.65
2019-02-21T20:35:16.142Z,25.65
2019-02-21T20:37:45.286Z,28.27
2019-02-21T20:40:14.632Z,26.23
2019-02-21T20:42:43.843Z,26.17
2019-02-21T20:45:14.105Z,28.73
2019-02-21T20:47:43.238Z,28.98
2019-02-21T20:50:12.600Z,30.12
2019-02-21T20:52:41.733Z,30.62
2019-02-21T20:55:11.410Z,31.93
2019-02-21T20:57:40.542Z,33.45
2019-02-21T21:00:15.343Z,33.63
2019-02-21T21:02:45.991Z,34.25
2019-02-21T21:05:15.136Z,32.70
2019-02-21T21:07:44.567Z,33.10
2019-02-21T21:10:16.051Z,36.08
2019-02-21T21:12:45.173Z,33.10
2019-02-21T21:15:14.766Z,36.03
2019-02-21T21:17:43.900Z,32.20
2019-02-21T21:20:16.847Z,35.28
2019-02-21T21:22:45.316Z,35.70
2019-02-21T21:25:15.799Z,33.30
2019-02-21T21:27:44.976Z,35.73
2019-02-21T21:30:16.224Z,35.70
2019-02-21T21:32:45.426Z,31.80
2019-02-21T21:35:14.547Z,32.03
2019-02-21T21:37:43.743Z,34.70
2019-02-21T21:40:17.733Z,33.10
2019-02-21T21:42:46.864Z,35.98
2019-02-21T21:45:18.790Z,36.45
2019-02-21T21:47:47.931Z,34.55
2019-02-21T21:50:18.393Z,35.30
2019-02-21T21:52:47.699Z,37.13
2019-02-21T21:55:16.829Z,36.90
2019-02-21T21:57:45.951Z,37.28
2019-02-21T22:00:20.549Z,36.98
2019-02-21T22:02:49.702Z,37.73
2019-02-21T22:05:18.827Z,37.75
2019-02-21T22:07:49.399Z,38.42
2019-02-21T22:10:18.986Z,38.05
2019-02-21T22:12:48.113Z,41.42
2019-02-21T22:15:25.241Z,39.03
2019-02-21T22:17:54.496Z,41.92
2019-02-21T22:20:23.855Z,42.08
2019-02-21T22:22:52.979Z,43.40
2019-02-21T22:25:22.341Z,44.60
2019-02-21T22:27:51.461Z,43.60
2019-02-21T22:30:20.973Z,43.87
2019-02-21T22:32:50.100Z,42.88
2019-02-21T22:35:19.463Z,43.83
2019-02-21T22:37:48.588Z,44.00
2019-02-21T22:40:18.954Z,44.60
2019-02-21T22:42:48.081Z,41.83
2019-02-21T22:45:17.236Z,44.40
2019-02-21T22:47:46.343Z,45.58
2019-02-21T22:50:16.824Z,42.65
2019-02-21T22:52:45.937Z,44.03
2019-02-21T22:55:15.071Z,42.30
2019-02-21T22:57:44.220Z,45.30
2019-02-21T23:00:48.079Z,46.50
2019-02-21T23:03:18.819Z,46.90
2019-02-21T23:06:13.137Z,44.98
2019-02-21T23:08:44.857Z,44.83
2019-02-21T23:11:13.986Z,46.75
2019-02-21T23:13:43.108Z,48.28
2019-02-21T23:16:12.240Z,47.48
2019-02-21T23:18:41.358Z,46.42
2019-02-21T23:21:11.586Z,49.13
2019-02-21T23:23:41.042Z,44.18
2019-02-21T23:26:10.239Z,49.15
2019-02-21T23:28:39.363Z,46.75
2019-02-21T23:31:08.740Z,47.78
2019-02-21T23:33:39.501Z,49.27
2019-02-21T23:36:08.623Z,48.78
2019-02-21T23:38:37.746Z,51.28
2019-02-21T23:41:06.871Z,48.83
2019-02-21T23:43:35.992Z,43.58
2019-02-21T23:46:05.116Z,45.73
2019-02-21T23:48:34.244Z,50.12
2019-02-21T23:51:03.365Z,50.15
2019-02-21T23:53:32.495Z,50.63
2019-02-21T23:56:01.623Z,47.23
2019-02-21T23:58:30.756Z,48.80
